Time,TemperatureF,DewpointF,PressureIn,WindDirection,WindDirectionDegrees,WindSpeedMPH,WindSpeedGustMPH,Humidity,HourlyPrecipIn,Conditions,Clouds,dailyrainin,SoftwareType,DateUTC
2013-01-14 00:02:00,14.6,-6.4,30.22,North,9,0.0,0.0,38,0.00,,,0.00,Wunderground v.1.15,2013-01-14 07:02:00,
2013-01-14 00:12:00,14.3,-4.6,30.22,North,9,0.0,1.0,42,0.00,,,0.00,Wunderground v.1.15,2013-01-14 07:12:00,
2013-01-14 00:22:00,14.6,-4.9,30.22,North,9,0.0,1.0,41,0.00,,,0.00,Wunderground v.1.15,2013-01-14 07:22:00,
2013-01-14 00:32:00,14.8,-4.2,30.21,North,9,1.0,1.0,42,0.00,,,0.00,Wunderground v.1.15,2013-01-14 07:32:00,
2013-01-14 00:42:00,15.2,-3.8,30.21,North,9,0.0,2.0,42,0.00,,,0.00,Wunderground v.1.15,2013-01-14 07:42:00,
2013-01-14 00:52:00,14.3,-4.6,30.22,North,9,0.0,1.0,42,0.00,,,0.00,Wunderground v.1.15,2013-01-14 07:52:00,
2013-01-14 01:02:00,14.9,-3.1,30.22,North,9,0.0,2.0,44,0.00,,,0.00,Wunderground v.1.15,2013-01-14 08:02:00,
2013-01-14 01:12:00,15.6,-3.0,30.22,North,9,0.0,2.0,43,0.00,,,0.00,Wunderground v.1.15,2013-01-14 08:12:00,
2013-01-14 01:22:00,15.2,-3.3,30.21,North,9,0.0,2.0,43,0.00,,,0.00,Wunderground v.1.15,2013-01-14 08:22:00,
2013-01-14 01:32:00,13.6,-4.8,30.21,North,9,0.0,0.0,43,0.00,,,0.00,Wunderground v.1.15,2013-01-14 08:32:00,
2013-01-14 01:42:00,11.6,-5.2,30.21,North,9,0.0,1.0,46,0.00,,,0.00,Wunderground v.1.15,2013-01-14 08:42:00,
2013-01-14 01:52:00,10.7,-5.6,30.22,North,9,0.0,1.0,47,0.00,,,0.00,Wunderground v.1.15,2013-01-14 08:52:00,
2013-01-14 02:02:00,10.0,-5.8,30.22,North,9,0.0,0.0,48,0.00,,,0.00,Wunderground v.1.15,2013-01-14 09:02:00,
2013-01-14 02:12:00,10.2,-5.6,30.22,North,9,0.0,1.0,48,0.00,,,0.00,Wunderground v.1.15,2013-01-14 09:12:00,
2013-01-14 02:22:00,10.0,-5.4,30.22,North,9,0.0,0.0,49,0.00,,,0.00,Wunderground v.1.15,2013-01-14 09:22:00,
2013-01-14 02:32:00,10.0,-5.4,30.22,North,9,0.0,0.0,49,0.00,,,0.00,Wunderground v.1.15,2013-01-14 09:32:00,
2013-01-14 02:42:00,9.5,-5.9,30.22,North,5,0.0,0.0,49,0.00,,,0.00,Wunderground v.1.15,2013-01-14 09:42:00,
2013-01-14 02:52:00,9.5,-5.4,30.23,North,5,0.0,1.0,50,0.00,,,0.00,Wunderground v.1.15,2013-01-14 09:52:00,
2013-01-14 03:02:00,9.5,-5.4,30.22,North,5,0.0,0.0,50,0.00,,,0.00,Wunderground v.1.15,2013-01-14 10:02:00,
2013-01-14 03:12:00,9.2,-5.7,30.22,North,5,0.0,0.0,50,0.00,,,0.00,Wunderground v.1.15,2013-01-14 10:12:00,
2013-01-14 03:22:00,9.2,-4.5,30.22,North,5,0.0,1.0,53,0.00,,,0.00,Wunderground v.1.15,2013-01-14 10:22:00,
2013-01-14 03:32:00,9.3,-4.0,30.22,South,170,0.0,2.0,54,0.00,,,0.00,Wunderground v.1.15,2013-01-14 10:32:00,
2013-01-14 03:42:00,9.5,-4.6,30.22,South,170,0.0,2.0,52,0.00,,,0.00,Wunderground v.1.15,2013-01-14 10:42:00,
2013-01-14 03:52:00,9.9,-4.2,30.22,South,170,0.0,0.0,52,0.00,,,0.00,Wunderground v.1.15,2013-01-14 10:52:00,
2013-01-14 04:02:00,9.7,-4.0,30.22,South,170,0.0,1.0,53,0.00,,,0.00,Wunderground v.1.15,2013-01-14 11:02:00,
2013-01-14 04:12:00,9.7,-3.6,30.22,South,170,0.0,1.0,54,0.00,,,0.00,Wunderground v.1.15,2013-01-14 11:12:00,
2013-01-14 04:22:00,10.0,-1.9,30.22,WSW,240,0.0,2.0,58,0.00,,,0.00,Wunderground v.1.15,2013-01-14 11:22:00,
2013-01-14 04:32:00,10.2,-2.8,30.22,WSW,238,0.0,2.0,55,0.00,,,0.00,Wunderground v.1.15,2013-01-14 11:32:00,
2013-01-14 04:42:00,10.9,-1.0,30.22,WSW,238,0.0,1.0,58,0.00,,,0.00,Wunderground v.1.15,2013-01-14 11:42:00,
2013-01-14 04:52:00,10.4,-2.6,30.21,NE,34,0.0,1.0,55,0.00,,,0.00,Wunderground v.1.15,2013-01-14 11:52:00,
2013-01-14 05:02:00,13.1,2.5,30.22,NNE,32,1.0,1.0,62,0.00,,,0.00,Wunderground v.1.15,2013-01-14 12:02:00,
2013-01-14 05:12:00,14.8,3.0,30.22,NNE,29,1.0,1.0,59,0.00,,,0.00,Wunderground v.1.15,2013-01-14 12:12:00,
2013-01-14 05:22:00,15.6,3.8,30.22,NNE,15,1.0,2.0,59,0.00,,,0.00,Wunderground v.1.15,2013-01-14 12:22:00,
2013-01-14 05:32:00,16.1,3.9,30.22,North,9,1.0,1.0,58,0.00,,,0.00,Wunderground v.1.15,2013-01-14 12:32:00,
2013-01-14 05:42:00,16.1,3.9,30.22,NNE,16,0.0,1.0,58,0.00,,,0.00,Wunderground v.1.15,2013-01-14 12:42:00,
2013-01-14 05:52:00,16.1,4.3,30.22,North,9,3.0,3.0,59,0.00,,,0.00,Wunderground v.1.15,2013-01-14 12:52:00,
2013-01-14 06:02:00,15.9,4.4,30.22,North,9,2.0,5.0,60,0.00,,,0.00,Wunderground v.1.15,2013-01-14 13:02:00,
2013-01-14 06:12:00,15.6,4.2,30.22,North,10,1.0,3.0,60,0.00,,,0.00,Wunderground v.1.15,2013-01-14 13:12:00,
2013-01-14 06:22:00,15.2,4.5,30.22,North,10,1.0,3.0,62,0.00,,,0.00,Wunderground v.1.15,2013-01-14 13:22:00,
2013-01-14 06:32:00,15.4,5.0,30.22,North,10,2.0,3.0,63,0.00,,,0.00,Wunderground v.1.15,2013-01-14 13:32:00,
2013-01-14 06:42:00,16.1,6.1,30.22,North,5,3.0,3.0,64,0.00,,,0.00,Wunderground v.1.15,2013-01-14 13:42:00,
2013-01-14 06:52:00,16.4,6.3,30.23,North,5,2.0,2.0,64,0.00,,,0.00,Wunderground v.1.15,2013-01-14 13:52:00,
2013-01-14 07:02:00,16.7,6.6,30.23,North,9,2.0,2.0,64,0.00,,,0.00,Wunderground v.1.15,2013-01-14 14:02:00,
2013-01-14 07:12:00,17.2,7.1,30.23,North,5,2.0,2.0,64,0.00,,,0.00,Wunderground v.1.15,2013-01-14 14:12:00,
2013-01-14 07:22:00,17.5,7.4,30.23,North,9,3.0,3.0,64,0.00,,,0.00,Wunderground v.1.15,2013-01-14 14:22:00,
2013-01-14 07:32:00,17.5,7.4,30.23,North,5,1.0,1.0,64,0.00,,,0.00,Wunderground v.1.15,2013-01-14 14:32:00,
2013-01-14 07:42:00,17.7,7.6,30.23,North,355,1.0,3.0,64,0.00,,,0.00,Wunderground v.1.15,2013-01-14 14:42:00,
2013-01-14 07:52:00,18.1,8.0,30.22,North,360,1.0,4.0,64,0.00,,,0.00,Wunderground v.1.15,2013-01-14 14:52:00,
2013-01-14 08:02:00,18.8,8.3,30.23,North,9,2.0,5.0,63,0.00,,,0.00,Wunderground v.1.15,2013-01-14 15:02:00,
2013-01-14 08:12:00,19.2,8.7,30.23,NNE,18,2.0,5.0,63,0.00,,,0.00,Wunderground v.1.15,2013-01-14 15:12:00,
2013-01-14 08:22:00,18.4,6.4,30.24,NNE,20,1.0,1.0,59,0.00,,,0.00,Wunderground v.1.15,2013-01-14 15:22:00,
2013-01-14 08:32:00,17.2,4.9,30.23,NNE,30,0.0,2.0,58,0.00,,,0.00,Wunderground v.1.15,2013-01-14 15:32:00,
2013-01-14 08:42:00,17.2,5.3,30.23,NNE,30,0.0,2.0,59,0.00,,,0.00,Wunderground v.1.15,2013-01-14 15:42:00,
2013-01-14 08:52:00,18.0,6.1,30.23,NNE,30,0.0,1.0,59,0.00,,,0.00,Wunderground v.1.15,2013-01-14 15:52:00,
2013-01-14 09:02:00,19.1,6.7,30.23,NNE,30,0.0,1.0,58,0.00,,,0.00,Wunderground v.1.15,2013-01-14 16:02:00,
2013-01-14 09:12:00,19.7,7.3,30.23,NNE,30,0.0,1.0,58,0.00,,,0.00,Wunderground v.1.15,2013-01-14 16:12:00,
2013-01-14 09:22:00,20.3,7.5,30.23,NNE,30,0.0,2.0,57,0.00,,,0.00,Wunderground v.1.15,2013-01-14 16:22:00,
2013-01-14 09:32:00,21.0,8.1,30.23,NNE,30,0.0,1.0,57,0.00,,,0.00,Wunderground v.1.15,2013-01-14 16:32:00,
2013-01-14 09:42:00,21.9,8.6,30.23,NNE,30,0.0,1.0,56,0.00,,,0.00,Wunderground v.1.15,2013-01-14 16:42:00,
2013-01-14 09:52:00,23.2,8.6,30.23,NNE,30,0.0,2.0,53,0.00,,,0.00,Wunderground v.1.15,2013-01-14 16:52:00,
2013-01-14 10:02:00,23.9,8.4,30.22,NNE,30,0.0,2.0,51,0.00,,,0.00,Wunderground v.1.15,2013-01-14 17:02:00,
2013-01-14 10:12:00,25.0,8.5,30.22,North,11,1.0,4.0,49,0.00,,,0.00,Wunderground v.1.15,2013-01-14 17:12:00,
2013-01-14 10:22:00,26.1,9.1,30.22,WNW,296,2.0,2.0,48,0.00,,,0.00,Wunderground v.1.15,2013-01-14 17:22:00,
2013-01-14 10:32:00,26.3,9.2,30.21,WNW,292,2.0,2.0,48,0.00,,,0.00,Wunderground v.1.15,2013-01-14 17:32:00,
2013-01-14 10:42:00,26.4,9.3,30.21,West,263,1.0,1.0,48,0.00,,,0.00,Wunderground v.1.15,2013-01-14 17:42:00,
2013-01-14 10:52:00,26.7,10.5,30.20,West,268,2.0,4.0,50,0.00,,,0.00,Wunderground v.1.15,2013-01-14 17:52:00,
2013-01-14 11:02:00,26.9,10.7,30.20,WSW,245,3.0,3.0,50,0.00,,,0.00,Wunderground v.1.15,2013-01-14 18:02:00,
2013-01-14 11:12:00,27.0,10.4,30.20,WNW,290,2.0,5.0,49,0.00,,,0.00,Wunderground v.1.15,2013-01-14 18:12:00,
2013-01-14 11:22:00,27.3,10.2,30.19,SW,236,3.0,7.0,48,0.00,,,0.00,Wunderground v.1.15,2013-01-14 18:22:00,
2013-01-14 11:32:00,27.2,10.5,30.18,SW,230,2.0,5.0,49,0.00,,,0.00,Wunderground v.1.15,2013-01-14 18:32:00,
2013-01-14 11:42:00,27.2,11.0,30.18,SSW,210,2.0,6.0,50,0.00,,,0.00,Wunderground v.1.15,2013-01-14 18:42:00,
2013-01-14 11:52:00,26.7,11.4,30.17,ESE,104,2.0,7.0,52,0.00,,,0.00,Wunderground v.1.15,2013-01-14 18:52:00,
2013-01-14 12:02:00,26.3,14.3,30.16,WNW,288,1.0,4.0,60,0.00,,,0.00,Wunderground v.1.15,2013-01-14 19:02:00,
2013-01-14 12:12:00,25.0,14.9,30.16,ESE,121,3.0,3.0,65,0.00,,,0.00,Wunderground v.1.15,2013-01-14 19:12:00,
2013-01-14 12:22:00,24.5,16.4,30.16,SW,227,1.0,2.0,71,0.00,,,0.00,Wunderground v.1.15,2013-01-14 19:22:00,
2013-01-14 12:32:00,24.1,17.3,30.15,SW,227,0.0,2.0,75,0.00,,,0.00,Wunderground v.1.15,2013-01-14 19:32:00,
2013-01-14 12:42:00,24.1,17.6,30.15,SW,227,0.0,2.0,76,0.00,,,0.00,Wunderground v.1.15,2013-01-14 19:42:00,
2013-01-14 12:52:00,24.2,18.0,30.15,SW,227,0.0,1.0,77,0.00,,,0.00,Wunderground v.1.15,2013-01-14 19:52:00,
2013-01-14 13:02:00,24.4,18.5,30.14,SW,227,0.0,0.0,78,0.00,,,0.00,Wunderground v.1.15,2013-01-14 20:02:00,
2013-01-14 13:12:00,24.8,19.2,30.14,SW,227,0.0,0.0,79,0.00,,,0.00,Wunderground v.1.15,2013-01-14 20:12:00,
2013-01-14 13:22:00,24.2,18.6,30.14,West,273,1.0,2.0,79,0.00,,,0.00,Wunderground v.1.15,2013-01-14 20:22:00,
2013-01-14 13:32:00,23.9,18.3,30.14,West,273,1.0,1.0,79,0.00,,,0.00,Wunderground v.1.15,2013-01-14 20:32:00,
2013-01-14 13:42:00,24.5,19.2,30.14,West,273,0.0,2.0,80,0.00,,,0.00,Wunderground v.1.15,2013-01-14 20:42:00,
2013-01-14 13:52:00,25.1,19.2,30.15,West,274,0.0,4.0,78,0.00,,,0.00,Wunderground v.1.15,2013-01-14 20:52:00,
2013-01-14 14:02:00,24.5,17.7,30.16,West,274,0.0,1.0,75,0.00,,,0.00,Wunderground v.1.15,2013-01-14 21:02:00,
2013-01-14 14:12:00,25.6,19.7,30.16,West,274,0.0,2.0,78,0.00,,,0.00,Wunderground v.1.15,2013-01-14 21:12:00,
2013-01-14 14:22:00,26.1,19.6,30.16,West,274,0.0,0.0,76,0.00,,,0.00,Wunderground v.1.15,2013-01-14 21:22:00,
2013-01-14 14:32:00,26.6,19.1,30.16,West,273,0.0,1.0,73,0.00,,,0.00,Wunderground v.1.15,2013-01-14 21:32:00,
2013-01-14 14:42:00,26.6,19.1,30.16,East,84,1.0,1.0,73,0.00,,,0.00,Wunderground v.1.15,2013-01-14 21:42:00,
2013-01-14 14:52:00,26.0,18.8,30.17,ENE,75,1.0,3.0,74,0.00,,,0.01,Wunderground v.1.15,2013-01-14 21:52:00,
2013-01-14 15:02:00,25.8,19.0,30.17,ENE,75,1.0,3.0,75,0.00,,,0.01,Wunderground v.1.15,2013-01-14 22:02:00,
2013-01-14 15:12:00,26.0,19.2,30.17,ESE,107,2.0,2.0,75,0.04,,,0.02,Wunderground v.1.15,2013-01-14 22:12:00,
2013-01-14 15:22:00,26.1,18.9,30.18,NE,55,2.0,2.0,74,0.04,,,0.02,Wunderground v.1.15,2013-01-14 22:22:00,
2013-01-14 15:32:00,25.6,18.1,30.18,East,91,2.0,2.0,73,0.00,,,0.02,Wunderground v.1.15,2013-01-14 22:32:00,
2013-01-14 15:42:00,25.3,17.9,30.18,East,90,2.0,2.0,73,0.00,,,0.03,Wunderground v.1.15,2013-01-14 22:42:00,
2013-01-14 15:52:00,25.7,18.2,30.18,East,80,1.0,2.0,73,0.00,,,0.03,Wunderground v.1.15,2013-01-14 22:52:00,
2013-01-14 16:02:00,25.8,18.3,30.18,East,89,1.0,4.0,73,0.00,,,0.03,Wunderground v.1.15,2013-01-14 23:02:00,
2013-01-14 16:12:00,26.0,18.2,30.18,NNE,15,3.0,3.0,72,0.00,,,0.03,Wunderground v.1.15,2013-01-14 23:12:00,
2013-01-14 16:22:00,25.7,17.9,30.18,NNE,33,2.0,4.0,72,0.00,,,0.03,Wunderground v.1.15,2013-01-14 23:22:00,
2013-01-14 16:32:00,25.6,17.5,30.19,NNE,22,2.0,2.0,71,0.00,,,0.03,Wunderground v.1.15,2013-01-14 23:32:00,
2013-01-14 16:42:00,24.8,16.7,30.19,NNE,21,2.0,2.0,71,0.00,,,0.03,Wunderground v.1.15,2013-01-14 23:42:00,
2013-01-14 16:52:00,23.9,16.2,30.19,NNE,21,1.0,3.0,72,0.00,,,0.03,Wunderground v.1.15,2013-01-14 23:52:00,
2013-01-14 17:02:00,23.0,15.3,30.20,NNE,21,1.0,2.0,72,0.00,,,0.03,Wunderground v.1.15,2013-01-15 00:02:00,
2013-01-14 17:12:00,22.2,15.2,30.20,NNE,21,1.0,3.0,74,0.00,,,0.03,Wunderground v.1.15,2013-01-15 00:12:00,
2013-01-14 17:22:00,21.8,15.4,30.21,NNE,21,0.0,1.0,76,0.00,,,0.03,Wunderground v.1.15,2013-01-15 00:22:00,
2013-01-14 17:32:00,22.7,16.9,30.22,NNW,346,2.0,10.0,78,0.00,,,0.03,Wunderground v.1.15,2013-01-15 00:32:00,
2013-01-14 17:42:00,22.9,16.5,30.22,North,360,4.0,4.0,76,0.00,,,0.03,Wunderground v.1.15,2013-01-15 00:42:00,
2013-01-14 17:52:00,22.4,16.6,30.23,NW,326,3.0,3.0,78,0.00,,,0.03,Wunderground v.1.15,2013-01-15 00:52:00,
2013-01-14 18:02:00,22.2,16.4,30.24,NW,319,2.0,2.0,78,0.00,,,0.03,Wunderground v.1.15,2013-01-15 01:02:00,
2013-01-14 18:12:00,22.4,16.9,30.24,NW,323,2.0,5.0,79,0.00,,,0.03,Wunderground v.1.15,2013-01-15 01:12:00,
2013-01-14 18:22:00,22.2,16.4,30.25,NNW,346,2.0,6.0,78,0.00,,,0.03,Wunderground v.1.15,2013-01-15 01:22:00,
2013-01-14 18:32:00,21.9,15.2,30.25,NNW,338,2.0,2.0,75,0.00,,,0.03,Wunderground v.1.15,2013-01-15 01:32:00,
2013-01-14 18:42:00,21.6,14.3,30.25,NNE,15,2.0,2.0,73,0.00,,,0.03,Wunderground v.1.15,2013-01-15 01:42:00,
2013-01-14 18:52:00,21.0,13.7,30.26,NE,38,1.0,4.0,73,0.00,,,0.03,Wunderground v.1.15,2013-01-15 01:52:00,
2013-01-14 19:02:00,20.6,13.6,30.27,NE,54,1.0,4.0,74,0.00,,,0.03,Wunderground v.1.15,2013-01-15 02:02:00,
2013-01-14 19:12:00,20.8,14.4,30.27,ENE,64,0.0,2.0,76,0.00,,,0.03,Wunderground v.1.15,2013-01-15 02:12:00,
2013-01-14 19:22:00,21.0,14.6,30.28,ENE,57,0.0,3.0,76,0.00,,,0.03,Wunderground v.1.15,2013-01-15 02:22:00,
2013-01-14 19:32:00,20.8,12.6,30.28,North,5,2.0,9.0,70,0.00,,,0.03,Wunderground v.1.15,2013-01-15 02:32:00,
2013-01-14 19:42:00,20.5,10.6,30.28,NNE,33,4.0,4.0,65,0.00,,,0.03,Wunderground v.1.15,2013-01-15 02:42:00,
2013-01-14 19:52:00,19.9,9.0,30.28,NNE,17,2.0,2.0,62,0.00,,,0.03,Wunderground v.1.15,2013-01-15 02:52:00,
2013-01-14 20:02:00,19.4,8.5,30.29,NNE,28,2.0,2.0,62,0.00,,,0.03,Wunderground v.1.15,2013-01-15 03:02:00,
2013-01-14 20:12:00,19.2,7.9,30.29,ESE,121,3.0,8.0,61,0.00,,,0.03,Wunderground v.1.15,2013-01-15 03:12:00,
2013-01-14 20:22:00,19.1,7.8,30.30,NNE,24,3.0,3.0,61,0.00,,,0.03,Wunderground v.1.15,2013-01-15 03:22:00,
2013-01-14 20:32:00,18.9,7.7,30.29,North,355,4.0,4.0,61,0.00,,,0.03,Wunderground v.1.15,2013-01-15 03:32:00,
2013-01-14 20:42:00,18.9,7.3,30.29,NNE,31,5.0,5.0,60,0.00,,,0.03,Wunderground v.1.15,2013-01-15 03:42:00,
2013-01-14 20:52:00,18.6,7.0,30.29,North,355,3.0,3.0,60,0.00,,,0.03,Wunderground v.1.15,2013-01-15 03:52:00,
2013-01-14 21:02:00,18.1,6.9,30.30,NNE,33,3.0,3.0,61,0.00,,,0.03,Wunderground v.1.15,2013-01-15 04:02:00,
2013-01-14 21:12:00,18.0,6.8,30.30,NE,46,4.0,4.0,61,0.00,,,0.03,Wunderground v.1.15,2013-01-15 04:12:00,
2013-01-14 21:22:00,18.4,6.4,30.31,NE,52,5.0,5.0,59,0.00,,,0.03,Wunderground v.1.15,2013-01-15 04:22:00,
2013-01-14 21:32:00,18.0,6.8,30.31,East,82,1.0,1.0,61,0.00,,,0.03,Wunderground v.1.15,2013-01-15 04:32:00,
2013-01-14 21:42:00,17.7,6.5,30.31,ENE,76,0.0,2.0,61,0.00,,,0.03,Wunderground v.1.15,2013-01-15 04:42:00,
2013-01-14 21:52:00,16.2,6.1,30.31,ENE,77,0.0,2.0,64,0.00,,,0.03,Wunderground v.1.15,2013-01-15 04:52:00,
2013-01-14 22:02:00,15.4,5.7,30.31,ENE,77,0.0,2.0,65,0.00,,,0.03,Wunderground v.1.15,2013-01-15 05:02:00,
2013-01-14 22:12:00,15.1,5.8,30.31,ENE,77,0.0,1.0,66,0.00,,,0.03,Wunderground v.1.15,2013-01-15 05:12:00,
2013-01-14 22:22:00,14.3,5.0,30.31,ENE,76,0.0,2.0,66,0.00,,,0.03,Wunderground v.1.15,2013-01-15 05:22:00,
2013-01-14 22:32:00,13.3,4.4,30.31,ENE,76,0.0,0.0,67,0.00,,,0.03,Wunderground v.1.15,2013-01-15 05:32:00,
2013-01-14 22:42:00,12.3,3.7,30.31,ENE,59,0.0,2.0,68,0.00,,,0.03,Wunderground v.1.15,2013-01-15 05:42:00,
2013-01-14 22:52:00,12.1,3.9,30.31,North,9,1.0,3.0,69,0.00,,,0.03,Wunderground v.1.15,2013-01-15 05:52:00,
2013-01-14 23:02:00,12.6,3.7,30.31,ENE,57,2.0,2.0,67,0.00,,,0.03,Wunderground v.1.15,2013-01-15 06:02:00,
2013-01-14 23:12:00,12.9,3.7,30.31,NE,38,1.0,1.0,66,0.00,,,0.03,Wunderground v.1.15,2013-01-15 06:12:00,
2013-01-14 23:22:00,12.4,2.9,30.31,NE,45,1.0,3.0,65,0.00,,,0.03,Wunderground v.1.15,2013-01-15 06:22:00,
2013-01-14 23:32:00,11.6,2.1,30.31,North,10,0.0,3.0,65,0.00,,,0.03,Wunderground v.1.15,2013-01-15 06:32:00,
2013-01-14 23:42:00,12.3,2.4,30.31,SE,128,1.0,5.0,64,0.00,,,0.03,Wunderground v.1.15,2013-01-15 06:42:00,
2013-01-14 23:52:00,11.1,1.9,30.31,ESE,103,1.0,6.0,66,0.00,,,0.03,Wunderground v.1.15,2013-01-15 06:52:00,